createdAt,value
2018-12-01T00:00:53.268Z,8.40
2018-12-01T00:03:21.675Z,8.40
2018-12-01T00:05:49.921Z,8.40
2018-12-01T00:08:18.231Z,8.40
2018-12-01T00:10:46.470Z,8.40
2018-12-01T00:13:14.739Z,8.40
2018-12-01T00:15:43.099Z,8.40
2018-12-01T00:18:11.333Z,8.30
2018-12-01T00:20:39.806Z,8.30
2018-12-01T00:23:08.084Z,8.20
2018-12-01T00:25:36.561Z,8.30
2018-12-01T00:28:05.030Z,8.30
2018-12-01T00:30:33.320Z,8.30
2018-12-01T00:33:01.989Z,8.20
2018-12-01T00:35:30.262Z,8.20
2018-12-01T00:37:58.663Z,8.20
2018-12-01T00:40:26.984Z,8.20
2018-12-01T00:42:55.434Z,8.20
2018-12-01T00:45:24.027Z,8.20
2018-12-01T00:47:53.248Z,8.20
2018-12-01T00:50:23.444Z,8.10
2018-12-01T00:52:52.536Z,8.10
2018-12-01T00:55:21.054Z,8.00
2018-12-01T00:57:49.324Z,8.00
2018-12-01T01:00:20.085Z,8.00
2018-12-01T01:02:50.912Z,8.10
2018-12-01T01:05:19.976Z,8.10
2018-12-01T01:07:48.260Z,8.10
2018-12-01T01:10:16.593Z,8.00
2018-12-01T01:12:44.862Z,8.10
2018-12-01T01:15:13.122Z,8.00
2018-12-01T01:17:41.383Z,8.00
2018-12-01T01:20:12.723Z,8.00
2018-12-01T01:22:40.962Z,8.00
2018-12-01T01:25:10.426Z,8.00
2018-12-01T01:27:38.772Z,8.00
2018-12-01T01:30:17.200Z,7.90
2018-12-01T01:32:45.534Z,7.90
2018-12-01T01:35:13.921Z,7.90
2018-12-01T01:37:42.250Z,7.90
2018-12-01T01:40:15.312Z,7.90
2018-12-01T01:42:43.647Z,7.90
2018-12-01T01:45:14.735Z,7.80
2018-12-01T01:47:43.125Z,7.80
2018-12-01T01:50:13.413Z,7.80
2018-12-01T01:52:41.729Z,7.80
2018-12-01T01:55:11.027Z,7.70
2018-12-01T01:57:39.425Z,7.70
2018-12-01T02:00:17.494Z,7.70
2018-12-01T02:02:52.334Z,7.70
2018-12-01T02:05:21.638Z,7.70
2018-12-01T02:07:50.222Z,7.70
2018-12-01T02:10:19.361Z,7.70
2018-12-01T02:12:47.627Z,7.70
2018-12-01T02:15:15.931Z,7.70
2018-12-01T02:17:44.267Z,7.70
2018-12-01T02:20:14.297Z,7.60
2018-12-01T02:22:42.840Z,7.60
2018-12-01T02:25:14.105Z,7.60
2018-12-01T02:27:42.355Z,7.50
2018-12-01T02:30:11.818Z,7.50
2018-12-01T02:32:40.051Z,7.60
2018-12-01T02:35:40.314Z,7.60
2018-12-01T02:38:08.728Z,7.60
2018-12-01T02:40:37.068Z,7.60
2018-12-01T02:43:05.352Z,7.60
2018-12-01T02:45:44.944Z,7.60
2018-12-01T02:48:13.209Z,7.60
2018-12-01T02:50:41.493Z,7.50
2018-12-01T02:53:09.756Z,7.50
2018-12-01T02:55:38.048Z,7.50
2018-12-01T02:58:06.561Z,7.60
2018-12-01T03:00:34.834Z,7.50
2018-12-01T03:03:03.090Z,7.50
2018-12-01T03:05:31.356Z,7.50
2018-12-01T03:07:59.595Z,7.40
2018-12-01T03:10:27.870Z,7.40
2018-12-01T03:12:56.277Z,7.40
2018-12-01T03:15:24.525Z,7.40
2018-12-01T03:17:52.928Z,7.40
2018-12-01T03:20:21.234Z,7.40
2018-12-01T03:22:49.561Z,7.40
2018-12-01T03:25:24.547Z,7.40
2018-12-01T03:27:53.807Z,7.40
2018-12-01T03:30:23.282Z,7.40
2018-12-01T03:32:52.257Z,7.30
2018-12-01T03:35:21.362Z,7.40
2018-12-01T03:37:50.754Z,7.40
2018-12-01T03:40:19.823Z,7.40
2018-12-01T03:42:48.351Z,7.40
2018-12-01T03:45:19.223Z,7.30
2018-12-01T03:47:47.517Z,7.30
2018-12-01T03:50:25.138Z,7.30
2018-12-01T03:52:54.680Z,7.30
2018-12-01T03:55:27.246Z,7.30
2018-12-01T03:57:55.645Z,7.30
2018-12-01T04:00:29.727Z,7.30
2018-12-01T04:02:58.815Z,7.30
2018-12-01T04:05:27.127Z,7.20
2018-12-01T04:07:55.518Z,7.20
2018-12-01T04:10:23.864Z,7.20
2018-12-01T04:12:52.151Z,7.20
2018-12-01T04:15:20.468Z,7.20
2018-12-01T04:17:48.871Z,7.20
2018-12-01T04:20:17.142Z,7.20
2018-12-01T04:22:45.429Z,7.20
2018-12-01T04:25:13.678Z,7.20
2018-12-01T04:27:41.915Z,7.30
2018-12-01T04:30:16.604Z,7.30
2018-12-01T04:32:44.876Z,7.30
2018-12-01T04:35:16.212Z,7.30
2018-12-01T04:37:45.395Z,7.30
2018-12-01T04:40:13.695Z,7.40
2018-12-01T04:42:42.019Z,7.40
2018-12-01T04:45:10.279Z,7.50
2018-12-01T04:47:38.704Z,7.50
2018-12-01T04:50:09.511Z,7.50
2018-12-01T04:52:37.799Z,7.50
2018-12-01T04:55:08.917Z,7.50
2018-12-01T04:57:37.376Z,7.60
2018-12-01T05:00:09.542Z,7.70
2018-12-01T05:02:37.845Z,7.70
2018-12-01T05:05:08.264Z,7.80
2018-12-01T05:07:36.508Z,7.80
2018-12-01T05:10:07.575Z,7.80
2018-12-01T05:12:35.871Z,7.80
2018-12-01T05:15:05.678Z,7.80
2018-12-01T05:17:33.918Z,7.80
2018-12-01T05:20:02.188Z,7.80
2018-12-01T05:22:30.448Z,7.70
2018-12-01T05:24:58.728Z,7.70
2018-12-01T05:27:26.963Z,7.70
2018-12-01T05:29:55.319Z,7.60
2018-12-01T05:32:23.583Z,7.60
2018-12-01T05:34:51.827Z,7.50
2018-12-01T05:37:20.167Z,7.50
2018-12-01T05:39:48.454Z,7.50
2018-12-01T05:42:16.701Z,7.50
2018-12-01T05:44:44.949Z,7.50
2018-12-01T05:47:13.222Z,7.50
2018-12-01T05:49:41.462Z,7.50
2018-12-01T05:52:09.715Z,7.60
2018-12-01T05:54:37.954Z,7.60
2018-12-01T05:57:06.216Z,7.60
2018-12-01T05:59:34.495Z,7.70
2018-12-01T06:02:02.774Z,7.70
2018-12-01T06:04:31.031Z,7.70
2018-12-01T06:06:59.330Z,7.80
2018-12-01T06:09:27.559Z,7.80
2018-12-01T06:11:55.907Z,7.80
2018-12-01T06:14:24.166Z,7.80
2018-12-01T06:16:52.418Z,7.80
2018-12-01T06:19:20.675Z,7.70
2018-12-01T06:21:48.947Z,7.80
2018-12-01T06:24:17.196Z,7.80
2018-12-01T06:26:45.428Z,7.80
2018-12-01T06:29:13.704Z,7.80
2018-12-01T06:31:42.002Z,7.80
2018-12-01T06:34:10.204Z,7.80
2018-12-01T06:36:38.440Z,7.80
2018-12-01T06:39:07.569Z,7.90
2018-12-01T06:41:35.851Z,7.90
2018-12-01T06:44:04.245Z,7.90
2018-12-01T06:46:32.502Z,7.90
2018-12-01T06:49:00.739Z,7.90
2018-12-01T06:51:29.054Z,8.00
2018-12-01T06:53:57.484Z,8.00
2018-12-01T06:56:25.722Z,8.00
2018-12-01T06:58:53.963Z,8.10
2018-12-01T07:01:22.221Z,8.10
2018-12-01T07:03:50.475Z,8.10
2018-12-01T07:06:18.742Z,8.10
2018-12-01T07:08:47.008Z,8.10
2018-12-01T07:11:15.239Z,8.10
2018-12-01T07:13:43.476Z,8.10
2018-12-01T07:16:11.748Z,8.20
2018-12-01T07:18:51.630Z,8.20
2018-12-01T07:21:19.906Z,8.30
2018-12-01T07:23:48.136Z,8.20
2018-12-01T07:26:16.408Z,8.20
2018-12-01T07:28:44.655Z,8.20
2018-12-01T07:31:12.946Z,8.20
2018-12-01T07:33:41.290Z,8.30
2018-12-01T07:36:09.558Z,8.30
2018-12-01T07:38:37.799Z,8.30
2018-12-01T07:41:06.065Z,8.30
2018-12-01T07:43:34.304Z,8.20
2018-12-01T07:46:02.520Z,8.30
2018-12-01T07:48:30.807Z,8.30
2018-12-01T07:50:59.090Z,8.30
2018-12-01T07:53:27.331Z,8.30
2018-12-01T07:55:55.709Z,8.30
2018-12-01T07:58:23.940Z,8.30
2018-12-01T08:00:52.171Z,8.30
2018-12-01T08:03:20.452Z,8.30
2018-12-01T08:05:48.791Z,8.30
2018-12-01T08:08:17.081Z,8.40
2018-12-01T08:10:45.310Z,8.50
2018-12-01T08:13:13.670Z,8.50
2018-12-01T08:15:41.944Z,8.60
2018-12-01T08:18:10.299Z,8.60
2018-12-01T08:20:38.640Z,8.70
2018-12-01T08:23:06.912Z,8.80
2018-12-01T08:25:35.164Z,8.80
2018-12-01T08:28:03.630Z,8.80
2018-12-01T08:30:33.127Z,8.90
2018-12-01T08:33:01.399Z,8.90
2018-12-01T08:35:30.303Z,9.00
2018-12-01T08:37:58.622Z,8.90
2018-12-01T08:40:28.124Z,8.90
2018-12-01T08:42:56.730Z,8.80
2018-12-01T08:45:24.995Z,8.80
2018-12-01T08:47:53.265Z,8.90
2018-12-01T08:50:22.695Z,8.90
2018-12-01T08:52:51.688Z,9.00
2018-12-01T08:55:22.223Z,9.00
2018-12-01T08:57:51.099Z,8.90
2018-12-01T09:00:24.651Z,9.00
2018-12-01T09:02:55.703Z,9.00
2018-12-01T09:05:24.023Z,9.10
2018-12-01T09:07:52.276Z,9.20
2018-12-01T09:10:20.498Z,9.30
2018-12-01T09:12:48.855Z,9.30
2018-12-01T09:15:17.095Z,9.30
2018-12-01T09:17:45.406Z,9.40
2018-12-01T09:20:14.386Z,9.40
2018-12-01T09:22:43.949Z,9.40
2018-12-01T09:25:13.414Z,9.40
2018-12-01T09:27:41.670Z,9.40
2018-12-01T09:30:12.390Z,9.50
2018-12-01T09:32:40.786Z,9.40
2018-12-01T09:35:09.071Z,9.50
2018-12-01T09:37:37.355Z,9.50
2018-12-01T09:40:09.084Z,9.50
2018-12-01T09:42:37.499Z,9.50
2018-12-01T09:45:11.628Z,9.60
2018-12-01T09:47:40.179Z,9.60
2018-12-01T09:50:11.716Z,9.60
2018-12-01T09:52:40.099Z,9.60
2018-12-01T09:55:09.757Z,9.50
2018-12-01T09:57:38.230Z,9.60
2018-12-01T10:00:09.907Z,9.60
2018-12-01T10:02:38.165Z,9.80
2018-12-01T10:05:08.263Z,9.80
2018-12-01T10:07:36.705Z,9.90
2018-12-01T10:10:08.917Z,10.00
2018-12-01T10:12:37.176Z,9.90
2018-12-01T10:15:08.221Z,10.00
2018-12-01T10:17:36.505Z,9.90
2018-12-01T10:20:05.331Z,9.90
2018-12-01T10:22:33.555Z,9.90
2018-12-01T10:25:01.791Z,10.00
2018-12-01T10:27:30.097Z,10.10
2018-12-01T10:29:58.344Z,10.30
2018-12-01T10:32:26.627Z,10.10
2018-12-01T10:34:54.950Z,10.20
2018-12-01T10:37:23.198Z,10.30
2018-12-01T10:39:51.445Z,10.30
2018-12-01T10:42:19.695Z,10.30
2018-12-01T10:44:47.982Z,10.40
2018-12-01T10:47:16.199Z,10.60
2018-12-01T10:49:44.434Z,10.70
2018-12-01T10:52:13.829Z,10.70
2018-12-01T10:54:41.000Z,10.70
2018-12-01T10:57:09.251Z,10.70
2018-12-01T10:59:37.498Z,10.70
2018-12-01T11:02:11.766Z,10.60
2018-12-01T11:04:40.523Z,10.60
2018-12-01T11:07:08.814Z,11.00
2018-12-01T11:09:37.058Z,11.20
2018-12-01T11:12:05.379Z,11.40
2018-12-01T11:14:33.646Z,11.30
2018-12-01T11:17:01.953Z,11.30
2018-12-01T11:19:30.213Z,11.20
2018-12-01T11:21:58.440Z,11.20
2018-12-01T11:24:26.742Z,11.10
2018-12-01T11:26:54.981Z,11.20
2018-12-01T11:29:23.279Z,11.20
2018-12-01T11:31:51.536Z,11.30
2018-12-01T11:34:19.847Z,11.50
2018-12-01T11:36:48.080Z,11.60
2018-12-01T11:39:16.364Z,11.70
2018-12-01T11:41:44.717Z,11.60
2018-12-01T11:44:13.042Z,11.50
2018-12-01T11:46:41.430Z,11.40
2018-12-01T11:49:09.799Z,11.30
2018-12-01T11:51:38.052Z,11.30
2018-12-01T11:54:06.271Z,11.30
2018-12-01T11:56:34.597Z,11.40
2018-12-01T11:59:02.883Z,11.50
2018-12-01T12:01:31.173Z,11.70
2018-12-01T12:03:59.449Z,11.60
2018-12-01T12:06:27.787Z,11.50
2018-12-01T12:08:56.147Z,11.60
2018-12-01T12:11:24.395Z,11.60
2018-12-01T12:13:52.682Z,11.80
2018-12-01T12:16:20.959Z,11.90
2018-12-01T12:18:49.206Z,12.00
2018-12-01T12:21:17.491Z,12.10
2018-12-01T12:23:45.879Z,12.20
2018-12-01T12:26:14.145Z,12.30
2018-12-01T12:28:42.502Z,12.30
2018-12-01T12:31:10.747Z,12.30
2018-12-01T12:33:39.022Z,12.30
2018-12-01T12:36:07.243Z,12.50
2018-12-01T12:38:35.502Z,12.60
2018-12-01T12:41:03.979Z,12.70
2018-12-01T12:43:32.271Z,12.90
2018-12-01T12:46:00.550Z,12.90
2018-12-01T12:48:28.821Z,12.80
2018-12-01T12:50:57.322Z,12.90
2018-12-01T12:53:25.594Z,13.30
2018-12-01T12:55:53.851Z,13.50
2018-12-01T12:58:22.095Z,13.60
2018-12-01T13:00:50.436Z,13.70
2018-12-01T13:03:18.699Z,13.50
2018-12-01T13:05:47.041Z,13.40
2018-12-01T13:08:17.578Z,13.10
2018-12-01T13:10:45.779Z,12.90
2018-12-01T13:13:14.134Z,12.60
2018-12-01T13:15:42.353Z,12.30
2018-12-01T13:18:11.874Z,12.20
2018-12-01T13:20:40.883Z,12.20
2018-12-01T13:23:09.337Z,12.10
2018-12-01T13:25:38.466Z,12.10
2018-12-01T13:28:10.305Z,12.10
2018-12-01T13:30:41.075Z,12.10
2018-12-01T13:33:09.442Z,12.00
2018-12-01T13:35:37.691Z,11.90
2018-12-01T13:38:06.489Z,11.80
2018-12-01T13:40:34.775Z,11.80
2018-12-01T13:43:03.070Z,11.60
2018-12-01T13:45:31.414Z,11.60
2018-12-01T13:47:59.659Z,11.70
2018-12-01T13:50:27.970Z,11.70
2018-12-01T13:52:57.555Z,11.70
2018-12-01T13:55:25.828Z,11.70
2018-12-01T13:57:54.173Z,11.70
2018-12-01T14:00:24.669Z,11.70
2018-12-01T14:02:52.943Z,11.80
2018-12-01T14:05:21.196Z,11.80
2018-12-01T14:07:49.485Z,11.80
2018-12-01T14:10:20.756Z,11.80
2018-12-01T14:12:52.284Z,11.80
2018-12-01T14:15:21.487Z,11.60
2018-12-01T14:17:49.780Z,11.60
2018-12-01T14:20:18.485Z,11.60
2018-12-01T14:22:47.558Z,11.60
2018-12-01T14:25:17.740Z,11.70
2018-12-01T14:27:49.506Z,11.60
2018-12-01T14:30:17.952Z,11.70
2018-12-01T14:32:46.386Z,11.70
2018-12-01T14:35:17.550Z,11.60
2018-12-01T14:37:50.225Z,11.60
2018-12-01T14:40:18.605Z,11.60
2018-12-01T14:42:46.868Z,11.40
2018-12-01T14:45:16.504Z,11.30
2018-12-01T14:47:44.811Z,11.30
2018-12-01T14:50:14.096Z,11.30
2018-12-01T14:52:42.917Z,11.20
2018-12-01T14:55:13.418Z,11.30
2018-12-01T14:57:41.871Z,11.30
2018-12-01T15:00:23.158Z,11.30
2018-12-01T15:02:52.172Z,11.40
2018-12-01T15:05:20.426Z,11.30
2018-12-01T15:07:49.342Z,11.20
2018-12-01T15:10:24.863Z,11.20
2018-12-01T15:12:53.237Z,11.30
2018-12-01T15:15:22.620Z,11.30
2018-12-01T15:17:51.001Z,11.30
2018-12-01T15:20:21.208Z,11.30
2018-12-01T15:22:50.531Z,11.30
2018-12-01T15:25:20.957Z,11.30
2018-12-01T15:27:49.224Z,11.30
2018-12-01T15:30:18.819Z,11.30
2018-12-01T15:33:18.424Z,11.10
2018-12-01T15:35:47.176Z,11.10
2018-12-01T15:38:15.740Z,11.10
2018-12-01T15:40:48.189Z,11.10
2018-12-01T15:43:17.079Z,11.00
2018-12-01T15:45:44.980Z,11.10
2018-12-01T15:48:13.323Z,11.10
2018-12-01T15:50:41.635Z,11.00
2018-12-01T15:53:13.184Z,11.00
2018-12-01T15:55:41.584Z,10.90
2018-12-01T15:58:09.888Z,11.00
2018-12-01T16:00:38.885Z,10.90
2018-12-01T16:03:07.368Z,10.90
2018-12-01T16:05:35.692Z,10.90
2018-12-01T16:08:03.962Z,10.90
2018-12-01T16:10:32.507Z,11.00
2018-12-01T16:13:19.016Z,10.90
2018-12-01T16:15:51.531Z,11.00
2018-12-01T16:18:19.998Z,11.00
2018-12-01T16:20:48.265Z,11.00
2018-12-01T16:23:16.569Z,10.80
2018-12-01T16:25:44.983Z,10.90
2018-12-01T16:28:13.261Z,10.90
2018-12-01T16:30:43.720Z,10.90
2018-12-01T16:33:15.479Z,10.90
2018-12-01T16:35:43.739Z,11.00
2018-12-01T16:38:13.459Z,11.00
2018-12-01T16:40:44.729Z,10.80
2018-12-01T16:43:13.697Z,10.90
2018-12-01T16:45:42.779Z,10.90
2018-12-01T16:48:11.142Z,10.80
2018-12-01T16:50:39.419Z,10.70
2018-12-01T16:53:09.363Z,10.70
2018-12-01T16:55:38.058Z,10.70
2018-12-01T16:58:06.435Z,10.70
2018-12-01T17:00:34.786Z,10.70
2018-12-01T17:03:03.047Z,10.70
2018-12-01T17:05:33.951Z,10.70
2018-12-01T17:08:02.201Z,10.60
2018-12-01T17:10:30.499Z,10.60
2018-12-01T17:12:58.825Z,10.60
2018-12-01T17:15:27.103Z,10.50
2018-12-01T17:17:55.379Z,10.50
2018-12-01T17:20:23.625Z,10.50
2018-12-01T17:22:53.438Z,10.60
2018-12-01T17:25:21.688Z,10.60
2018-12-01T17:27:50.774Z,10.50
2018-12-01T17:30:22.440Z,10.50
2018-12-01T17:32:51.252Z,10.60
2018-12-01T17:35:20.854Z,10.50
2018-12-01T17:37:50.414Z,10.60
2018-12-01T17:40:22.418Z,10.40
2018-12-01T17:42:52.120Z,10.40
2018-12-01T17:45:20.598Z,10.50
2018-12-01T17:47:48.853Z,10.50
2018-12-01T17:50:17.498Z,10.40
2018-12-01T17:52:49.427Z,10.50
2018-12-01T17:55:17.795Z,10.40
2018-12-01T17:57:46.591Z,10.40
2018-12-01T18:00:18.400Z,10.30
2018-12-01T18:02:46.946Z,10.30
2018-12-01T18:05:18.052Z,10.30
2018-12-01T18:07:46.365Z,10.30
2018-12-01T18:10:14.817Z,10.30
2018-12-01T18:12:43.690Z,10.30
2018-12-01T18:15:14.151Z,10.30
2018-12-01T18:17:42.543Z,10.30
2018-12-01T18:20:18.371Z,10.30
2018-12-01T18:22:53.235Z,10.30
2018-12-01T18:25:21.511Z,10.20
2018-12-01T18:27:51.198Z,10.10
2018-12-01T18:30:23.146Z,10.00
2018-12-01T18:32:52.035Z,10.00
2018-12-01T18:35:20.320Z,10.10
2018-12-01T18:37:48.725Z,10.10
2018-12-01T18:40:19.415Z,10.10
2018-12-01T18:42:47.726Z,10.00
2018-12-01T18:45:17.318Z,10.00
2018-12-01T18:47:45.655Z,10.00
2018-12-01T18:50:17.906Z,10.10
2018-12-01T18:52:52.416Z,10.10
2018-12-01T18:55:20.738Z,10.00
2018-12-01T18:57:49.008Z,10.10
2018-12-01T19:00:18.786Z,10.10
2018-12-01T19:02:47.143Z,10.00
2018-12-01T19:05:15.421Z,10.00
2018-12-01T19:07:43.816Z,10.00
2018-12-01T19:10:15.220Z,10.00
2018-12-01T19:12:43.534Z,10.00
2018-12-01T19:15:13.020Z,10.00
2018-12-01T19:17:41.436Z,10.00
2018-12-01T19:20:12.900Z,9.90
2018-12-01T19:22:41.344Z,9.90
2018-12-01T19:25:11.935Z,9.90
2018-12-01T19:27:40.219Z,9.90
2018-12-01T19:30:12.627Z,9.80
2018-12-01T19:32:41.602Z,9.80
2018-12-01T19:35:11.702Z,9.80
2018-12-01T19:37:39.936Z,9.80
2018-12-01T19:40:11.347Z,9.80
2018-12-01T19:42:39.604Z,9.90
2018-12-01T19:45:09.083Z,9.90
2018-12-01T19:47:36.381Z,9.90
2018-12-01T19:50:38.955Z,9.90
2018-12-01T19:53:08.407Z,10.00
2018-12-01T19:55:36.795Z,10.10
2018-12-01T19:58:10.830Z,10.10
2018-12-01T20:00:40.574Z,10.10
2018-12-01T20:03:15.343Z,10.10
2018-12-01T20:05:43.628Z,10.10
2018-12-01T20:08:12.452Z,10.10
2018-12-01T20:10:43.939Z,10.00
2018-12-01T20:13:17.674Z,10.10
2018-12-01T20:15:47.752Z,10.10
2018-12-01T20:18:20.444Z,10.10
2018-12-01T20:20:48.748Z,10.00
2018-12-01T20:23:17.041Z,10.10
2018-12-01T20:25:46.976Z,10.10
2018-12-01T20:28:15.264Z,10.10
2018-12-01T20:30:43.519Z,10.00
2018-12-01T20:33:12.244Z,10.10
2018-12-01T20:35:45.434Z,10.10
2018-12-01T20:38:17.385Z,10.10
2018-12-01T20:40:45.623Z,10.10
2018-12-01T20:43:13.916Z,10.00
2018-12-01T20:45:42.163Z,10.00
2018-12-01T20:48:10.484Z,9.90
2018-12-01T20:50:38.765Z,9.90
2018-12-01T20:53:07.794Z,10.00
2018-12-01T20:55:36.090Z,9.90
2018-12-01T20:58:06.480Z,9.90
2018-12-01T21:00:34.775Z,10.00
2018-12-01T21:03:03.043Z,10.00
2018-12-01T21:05:31.356Z,10.00
2018-12-01T21:08:02.292Z,10.00
2018-12-01T21:10:36.671Z,10.00
2018-12-01T21:13:05.248Z,10.00
2018-12-01T21:15:33.577Z,10.10
2018-12-01T21:18:01.846Z,10.20
2018-12-01T21:20:30.102Z,10.10
2018-12-01T21:22:58.576Z,10.20
2018-12-01T21:25:27.856Z,10.20
2018-12-01T21:27:58.078Z,10.20
2018-12-01T21:30:27.423Z,10.10
2018-12-01T21:32:59.429Z,10.20
2018-12-01T21:35:27.780Z,10.20
2018-12-01T21:37:56.295Z,10.20
2018-12-01T21:40:24.954Z,10.20
2018-12-01T21:42:53.179Z,10.20
2018-12-01T21:45:21.437Z,10.20
2018-12-01T21:47:49.688Z,10.30
2018-12-01T21:50:20.420Z,10.20
2018-12-01T21:52:51.992Z,10.30
2018-12-01T21:55:20.324Z,10.20
2018-12-01T21:57:49.289Z,10.10
2018-12-01T22:00:23.064Z,10.10
2018-12-01T22:02:54.140Z,10.20
2018-12-01T22:05:31.355Z,10.20
2018-12-01T22:07:59.640Z,10.30
2018-12-01T22:10:27.912Z,10.20
2018-12-01T22:12:56.526Z,10.30
2018-12-01T22:15:24.792Z,10.20
2018-12-01T22:17:53.102Z,10.20
2018-12-01T22:20:22.296Z,10.30
2018-12-01T22:22:51.498Z,10.30
2018-12-01T22:25:19.789Z,10.30
2018-12-01T22:27:48.555Z,10.40
2018-12-01T22:30:19.737Z,10.40
2018-12-01T22:32:50.642Z,10.40
2018-12-01T22:35:23.028Z,10.40
2018-12-01T22:37:51.789Z,10.40
2018-12-01T22:40:22.218Z,10.40
2018-12-01T22:42:52.029Z,10.30
2018-12-01T22:45:20.304Z,10.30
2018-12-01T22:47:48.613Z,10.30
2018-12-01T22:50:19.113Z,10.40
2018-12-01T22:52:47.655Z,10.40
2018-12-01T22:55:17.422Z,10.30
2018-12-01T22:57:49.605Z,10.40
2018-12-01T23:00:29.918Z,10.40
2018-12-01T23:02:58.300Z,10.40
2018-12-01T23:05:26.576Z,10.40
2018-12-01T23:07:54.841Z,10.40
2018-12-01T23:10:23.123Z,10.40
2018-12-01T23:12:51.447Z,10.40
2018-12-01T23:15:19.699Z,10.40
2018-12-01T23:17:48.766Z,10.40
2018-12-01T23:20:20.171Z,10.40
2018-12-01T23:22:48.950Z,10.40
2018-12-01T23:25:17.225Z,10.40
2018-12-01T23:27:45.522Z,10.40
2018-12-01T23:30:30.513Z,10.40
2018-12-01T23:33:01.066Z,10.40
2018-12-01T23:35:29.890Z,10.50
2018-12-01T23:37:58.656Z,10.50
2018-12-01T23:40:28.096Z,10.60
2018-12-01T23:42:55.374Z,10.40
2018-12-01T23:45:23.852Z,10.50
2018-12-01T23:47:52.104Z,10.60
2018-12-01T23:50:24.320Z,10.70
2018-12-01T23:52:55.651Z,10.70
2018-12-01T23:55:24.143Z,10.70
2018-12-01T23:57:52.433Z,10.50
